createdAt,value
2017-04-29T00:00:48.749Z,0
2017-04-29T00:01:50.165Z,0
2017-04-29T00:02:51.581Z,0
2017-04-29T00:03:52.996Z,0
2017-04-29T00:04:54.407Z,0
2017-04-29T00:05:55.825Z,0
2017-04-29T00:06:57.247Z,0
2017-04-29T00:07:58.667Z,0
2017-04-29T00:09:00.084Z,0
2017-04-29T00:10:01.501Z,0
2017-04-29T00:11:02.915Z,0
2017-04-29T00:12:04.341Z,0
2017-04-29T00:13:05.759Z,0
2017-04-29T00:14:07.191Z,0
2017-04-29T00:15:08.654Z,0
2017-04-29T00:16:10.074Z,0
2017-04-29T00:17:11.492Z,0
2017-04-29T00:18:12.917Z,0
2017-04-29T00:19:14.342Z,0
2017-04-29T00:20:15.758Z,0
2017-04-29T00:21:17.177Z,0
2017-04-29T00:22:18.592Z,0
2017-04-29T00:23:20.010Z,0
2017-04-29T00:24:21.428Z,0
2017-04-29T00:25:22.847Z,0
2017-04-29T00:26:24.267Z,0
2017-04-29T00:27:25.686Z,0
2017-04-29T00:28:27.105Z,0
2017-04-29T00:29:28.519Z,0
2017-04-29T00:30:29.938Z,0
2017-04-29T00:31:31.358Z,0
2017-04-29T00:32:32.781Z,0
2017-04-29T00:33:34.194Z,0
2017-04-29T00:34:35.610Z,0
2017-04-29T00:35:37.025Z,0
2017-04-29T00:36:38.436Z,0
2017-04-29T00:37:39.850Z,0
2017-04-29T00:38:41.261Z,0
2017-04-29T00:39:42.706Z,0
2017-04-29T00:40:44.090Z,0
2017-04-29T00:41:45.504Z,0
2017-04-29T00:42:46.917Z,0
2017-04-29T00:43:48.334Z,0
2017-04-29T00:44:49.754Z,0
2017-04-29T00:45:51.175Z,0
2017-04-29T00:46:52.592Z,0
2017-04-29T00:47:54.018Z,0
2017-04-29T00:48:55.423Z,0
2017-04-29T00:49:56.836Z,0
2017-04-29T00:50:58.257Z,0
2017-04-29T00:51:59.679Z,0
2017-04-29T00:53:01.157Z,0
2017-04-29T00:54:02.579Z,0
2017-04-29T00:55:03.996Z,0
2017-04-29T00:56:05.421Z,0
2017-04-29T00:57:06.911Z,0
2017-04-29T00:58:08.337Z,0
2017-04-29T00:59:09.757Z,0
2017-04-29T01:00:11.182Z,0
2017-04-29T01:01:12.608Z,0
2017-04-29T01:02:14.023Z,0
2017-04-29T01:03:15.438Z,0
2017-04-29T01:04:16.852Z,0
2017-04-29T01:05:18.266Z,0
2017-04-29T01:06:19.687Z,0
2017-04-29T01:07:21.102Z,0
2017-04-29T01:08:22.525Z,0
2017-04-29T01:09:23.939Z,0
2017-04-29T01:10:25.367Z,0
2017-04-29T01:11:26.785Z,0
2017-04-29T01:12:28.205Z,0
2017-04-29T01:13:29.619Z,0
2017-04-29T01:14:31.039Z,0
2017-04-29T01:15:32.453Z,0
2017-04-29T01:16:33.867Z,0
2017-04-29T01:17:35.280Z,0
2017-04-29T01:18:36.694Z,0
2017-04-29T01:19:38.110Z,0
2017-04-29T01:20:39.526Z,0
2017-04-29T01:21:40.941Z,0
2017-04-29T01:22:42.362Z,0
2017-04-29T01:23:43.775Z,0
2017-04-29T01:24:45.188Z,0
2017-04-29T01:25:46.609Z,0
2017-04-29T01:26:48.027Z,0
2017-04-29T01:27:49.444Z,0
2017-04-29T01:28:50.863Z,0
2017-04-29T01:29:52.283Z,0
2017-04-29T01:30:53.707Z,0
2017-04-29T01:31:55.121Z,0
2017-04-29T01:32:56.537Z,0
2017-04-29T01:33:57.952Z,0
2017-04-29T01:34:59.368Z,0
2017-04-29T01:36:00.839Z,0
2017-04-29T01:37:02.251Z,0
2017-04-29T01:38:03.667Z,0
2017-04-29T01:39:05.088Z,0
2017-04-29T01:40:06.500Z,0
2017-04-29T01:41:07.915Z,0
2017-04-29T01:42:09.326Z,0
2017-04-29T01:43:10.742Z,0
2017-04-29T01:44:12.160Z,0
2017-04-29T01:45:13.578Z,0
2017-04-29T01:46:15.004Z,0
2017-04-29T01:47:16.426Z,0
2017-04-29T01:48:17.847Z,0
2017-04-29T01:49:19.264Z,0
2017-04-29T01:50:20.675Z,0
2017-04-29T01:51:22.094Z,0
2017-04-29T01:52:23.509Z,0
2017-04-29T01:53:24.929Z,0
2017-04-29T01:54:26.347Z,0
2017-04-29T01:55:27.767Z,0
2017-04-29T01:56:29.192Z,0
2017-04-29T01:57:30.605Z,0
2017-04-29T01:58:32.025Z,0
2017-04-29T01:59:33.446Z,0
2017-04-29T02:00:34.861Z,0
2017-04-29T02:01:36.281Z,0
2017-04-29T02:02:37.701Z,0
2017-04-29T02:03:39.124Z,0
2017-04-29T02:04:40.542Z,0
2017-04-29T02:05:41.955Z,0
2017-04-29T02:06:43.371Z,0
2017-04-29T02:07:44.793Z,0
2017-04-29T02:08:46.203Z,0
2017-04-29T02:09:47.624Z,0
2017-04-29T02:10:49.042Z,0
2017-04-29T02:11:50.465Z,0
2017-04-29T02:12:51.884Z,0
2017-04-29T02:13:53.297Z,0
2017-04-29T02:14:54.729Z,0
2017-04-29T02:15:56.133Z,0
2017-04-29T02:16:57.556Z,0
2017-04-29T02:17:59.066Z,0
2017-04-29T02:19:00.481Z,0
2017-04-29T02:20:01.902Z,0
2017-04-29T02:21:03.319Z,0
2017-04-29T02:22:04.733Z,0
2017-04-29T02:23:06.147Z,0
2017-04-29T02:24:07.564Z,0
2017-04-29T02:25:08.987Z,0
2017-04-29T02:26:10.406Z,0
2017-04-29T02:27:11.817Z,0
2017-04-29T02:28:13.237Z,0
2017-04-29T02:29:14.650Z,0
2017-04-29T02:30:16.077Z,0
2017-04-29T02:31:17.486Z,0
2017-04-29T02:32:18.903Z,0
2017-04-29T02:33:20.325Z,0
2017-04-29T02:34:21.737Z,0
2017-04-29T02:35:23.155Z,0
2017-04-29T02:36:24.576Z,0
2017-04-29T02:37:25.996Z,0
2017-04-29T02:38:27.415Z,0
2017-04-29T02:39:28.829Z,0
2017-04-29T02:40:30.247Z,0
2017-04-29T02:41:31.662Z,0
2017-04-29T02:42:33.085Z,0
2017-04-29T02:43:34.500Z,0
2017-04-29T02:44:35.914Z,0
2017-04-29T02:45:37.327Z,0
2017-04-29T02:46:38.744Z,0
2017-04-29T02:47:40.160Z,0
2017-04-29T02:48:41.573Z,0
2017-04-29T02:49:42.987Z,0
2017-04-29T02:50:44.400Z,0
2017-04-29T02:51:45.819Z,0
2017-04-29T02:52:47.235Z,0
2017-04-29T02:53:48.687Z,0
2017-04-29T02:54:50.104Z,0
2017-04-29T02:55:51.517Z,0
2017-04-29T02:56:52.933Z,0
2017-04-29T02:57:54.353Z,0
2017-04-29T02:58:55.759Z,0
2017-04-29T02:59:57.185Z,0
2017-04-29T03:00:58.685Z,0
2017-04-29T03:02:00.100Z,0
2017-04-29T03:03:01.510Z,0
2017-04-29T03:04:03.025Z,0
2017-04-29T03:05:04.444Z,0
2017-04-29T03:06:05.857Z,0
2017-04-29T03:07:07.268Z,0
2017-04-29T03:08:08.689Z,0
2017-04-29T03:09:10.105Z,0
2017-04-29T03:10:11.528Z,0
2017-04-29T03:11:12.939Z,0
2017-04-29T03:12:14.364Z,0
2017-04-29T03:13:15.779Z,0
2017-04-29T03:14:17.197Z,0
2017-04-29T03:15:18.612Z,0
2017-04-29T03:16:20.026Z,0
2017-04-29T03:17:21.445Z,0
2017-04-29T03:18:22.861Z,0
2017-04-29T03:19:24.277Z,0
2017-04-29T03:20:25.692Z,0
2017-04-29T03:21:27.103Z,0
2017-04-29T03:22:28.515Z,0
2017-04-29T03:23:29.933Z,0
2017-04-29T03:24:31.346Z,0
2017-04-29T03:25:32.759Z,0
2017-04-29T03:26:34.178Z,0
2017-04-29T03:27:35.591Z,0
2017-04-29T03:28:37.010Z,0
2017-04-29T03:29:38.429Z,0
2017-04-29T03:30:39.846Z,0
2017-04-29T03:31:41.264Z,0
2017-04-29T03:32:42.682Z,0
2017-04-29T03:33:44.099Z,0
2017-04-29T03:34:45.511Z,0
2017-04-29T03:35:46.923Z,0
2017-04-29T03:36:48.349Z,0
2017-04-29T03:37:49.767Z,0
2017-04-29T03:38:51.187Z,0
2017-04-29T03:39:52.604Z,0
2017-04-29T03:40:54.020Z,0
2017-04-29T03:41:55.443Z,0
2017-04-29T03:42:56.865Z,0
2017-04-29T03:43:58.279Z,0
2017-04-29T03:44:59.691Z,0
2017-04-29T03:46:01.108Z,0
2017-04-29T03:47:02.523Z,0
2017-04-29T03:48:03.939Z,0
2017-04-29T03:49:05.352Z,0
2017-04-29T03:50:06.772Z,0
2017-04-29T03:51:08.184Z,0
2017-04-29T03:52:09.608Z,0
2017-04-29T03:53:11.026Z,0
2017-04-29T03:54:12.442Z,0
2017-04-29T03:55:13.854Z,0
2017-04-29T03:56:15.273Z,0
2017-04-29T03:57:16.685Z,0
2017-04-29T03:58:18.106Z,0
2017-04-29T03:59:19.514Z,0
2017-04-29T04:00:20.937Z,0
2017-04-29T04:01:22.352Z,0
2017-04-29T04:02:23.778Z,0
2017-04-29T04:03:25.194Z,0
2017-04-29T04:04:26.642Z,0
2017-04-29T04:05:28.028Z,0
2017-04-29T04:06:29.440Z,0
2017-04-29T04:07:30.856Z,0
2017-04-29T04:08:32.270Z,0
2017-04-29T04:09:33.681Z,0
2017-04-29T04:10:35.097Z,0
2017-04-29T04:11:36.524Z,0
2017-04-29T04:12:37.938Z,0
2017-04-29T04:13:39.350Z,0
2017-04-29T04:14:40.764Z,0
2017-04-29T04:15:42.200Z,0
2017-04-29T04:16:43.616Z,0
2017-04-29T04:17:45.112Z,0
2017-04-29T04:18:46.555Z,0
2017-04-29T04:19:47.969Z,0
2017-04-29T04:20:49.391Z,0
2017-04-29T04:21:50.817Z,0
2017-04-29T04:22:52.231Z,0
2017-04-29T04:23:53.650Z,0
2017-04-29T04:24:55.065Z,0
2017-04-29T04:25:56.479Z,0
2017-04-29T04:26:57.895Z,0
2017-04-29T04:27:59.309Z,0
2017-04-29T04:29:00.726Z,0
2017-04-29T04:30:02.149Z,0
2017-04-29T04:31:03.564Z,5
2017-04-29T04:32:04.982Z,5
2017-04-29T04:33:06.396Z,5
2017-04-29T04:34:07.810Z,5
2017-04-29T04:35:09.234Z,5
2017-04-29T04:36:10.649Z,5
2017-04-29T04:37:12.074Z,5
2017-04-29T04:38:13.486Z,5
2017-04-29T04:39:14.909Z,5
2017-04-29T04:40:16.327Z,5
2017-04-29T04:41:17.743Z,10
2017-04-29T04:42:19.160Z,10
2017-04-29T04:43:20.574Z,10
2017-04-29T04:44:21.990Z,10
2017-04-29T04:45:23.412Z,10
2017-04-29T04:46:24.829Z,10
2017-04-29T04:47:26.245Z,10
2017-04-29T04:48:27.662Z,15
2017-04-29T04:49:29.079Z,15
2017-04-29T04:50:30.488Z,15
2017-04-29T04:51:31.904Z,15
2017-04-29T04:52:33.322Z,15
2017-04-29T04:53:34.737Z,15
2017-04-29T04:54:36.152Z,15
2017-04-29T04:55:37.569Z,15
2017-04-29T04:56:38.992Z,15
2017-04-29T04:57:40.412Z,20
2017-04-29T04:58:41.831Z,20
2017-04-29T04:59:43.257Z,20
2017-04-29T05:00:44.673Z,20
2017-04-29T05:01:46.089Z,20
2017-04-29T05:02:47.509Z,25
2017-04-29T05:03:48.932Z,25
2017-04-29T05:04:50.349Z,25
2017-04-29T05:05:51.771Z,25
2017-04-29T05:06:53.190Z,25
2017-04-29T05:07:54.603Z,25
2017-04-29T05:08:56.023Z,30
2017-04-29T05:09:57.439Z,30
2017-04-29T05:10:58.857Z,30
2017-04-29T05:12:00.280Z,30
2017-04-29T05:13:01.696Z,30
2017-04-29T05:14:03.120Z,30
2017-04-29T05:15:04.541Z,30
2017-04-29T05:16:05.968Z,30
2017-04-29T05:17:07.392Z,30
2017-04-29T05:18:08.804Z,35
2017-04-29T05:19:10.232Z,35
2017-04-29T05:20:11.648Z,35
2017-04-29T05:21:13.067Z,35
2017-04-29T05:22:14.482Z,35
2017-04-29T05:23:15.898Z,35
2017-04-29T05:24:17.317Z,35
2017-04-29T05:25:18.740Z,35
2017-04-29T05:26:20.154Z,35
2017-04-29T05:27:21.579Z,35
2017-04-29T05:28:22.999Z,40
2017-04-29T05:29:24.416Z,40
2017-04-29T05:30:25.833Z,35
2017-04-29T05:31:27.249Z,35
2017-04-29T05:32:28.666Z,35
2017-04-29T05:33:30.085Z,35
2017-04-29T05:34:31.504Z,35
2017-04-29T05:35:32.928Z,30
2017-04-29T05:36:34.349Z,30
2017-04-29T05:37:35.762Z,35
2017-04-29T05:38:37.181Z,35
2017-04-29T05:39:38.602Z,35
2017-04-29T05:40:40.041Z,35
2017-04-29T05:41:41.461Z,35
2017-04-29T05:42:42.879Z,40
2017-04-29T05:43:44.296Z,40
2017-04-29T05:44:45.725Z,40
2017-04-29T05:45:47.145Z,40
2017-04-29T05:46:48.557Z,40
2017-04-29T05:47:50.736Z,40
2017-04-29T05:48:52.154Z,45
2017-04-29T05:49:53.570Z,45
2017-04-29T05:50:54.994Z,45
2017-04-29T05:51:56.407Z,45
2017-04-29T05:52:57.823Z,45
2017-04-29T05:53:59.245Z,45
2017-04-29T05:55:00.667Z,45
2017-04-29T05:56:02.089Z,45
2017-04-29T05:57:03.508Z,45
2017-04-29T05:58:04.923Z,45
2017-04-29T05:59:06.353Z,45
2017-04-29T06:00:07.762Z,45
2017-04-29T06:01:09.186Z,50
2017-04-29T06:02:10.606Z,50
2017-04-29T06:03:12.033Z,50
2017-04-29T06:04:13.459Z,55
2017-04-29T06:05:14.880Z,55
2017-04-29T06:06:16.297Z,55
2017-04-29T06:07:17.719Z,55
2017-04-29T06:08:19.141Z,55
2017-04-29T06:09:20.568Z,60
2017-04-29T06:10:21.986Z,60
2017-04-29T06:11:23.407Z,60
2017-04-29T06:12:24.830Z,60
2017-04-29T06:13:26.250Z,60
2017-04-29T06:14:27.671Z,60
2017-04-29T06:15:29.089Z,60
2017-04-29T06:16:30.508Z,60
2017-04-29T06:17:31.928Z,60
2017-04-29T06:18:33.349Z,60
2017-04-29T06:19:34.769Z,60
2017-04-29T06:20:36.193Z,60
2017-04-29T06:21:37.608Z,60
2017-04-29T06:22:39.028Z,60
2017-04-29T06:23:40.450Z,50
2017-04-29T06:24:41.872Z,65
2017-04-29T06:25:43.288Z,65
2017-04-29T06:26:44.714Z,65
2017-04-29T06:27:46.135Z,65
2017-04-29T06:28:47.555Z,65
2017-04-29T06:29:48.985Z,65
2017-04-29T06:30:50.412Z,65
2017-04-29T06:31:51.840Z,70
2017-04-29T06:32:53.258Z,70
2017-04-29T06:33:54.685Z,70
2017-04-29T06:34:56.108Z,65
2017-04-29T06:35:57.530Z,65
2017-04-29T06:36:58.954Z,65
2017-04-29T06:38:00.383Z,65
2017-04-29T06:39:01.807Z,70
2017-04-29T06:40:03.259Z,70
2017-04-29T06:41:04.675Z,70
2017-04-29T06:42:06.106Z,70
2017-04-29T06:43:07.526Z,70
2017-04-29T06:44:08.945Z,65
2017-04-29T06:45:10.370Z,65
2017-04-29T06:46:11.792Z,65
2017-04-29T06:47:13.219Z,65
2017-04-29T06:48:14.648Z,65
2017-04-29T06:49:16.069Z,65
2017-04-29T06:50:17.493Z,50
2017-04-29T06:51:18.917Z,65
2017-04-29T06:52:20.331Z,65
2017-04-29T06:53:21.755Z,65
2017-04-29T06:54:23.167Z,65
2017-04-29T06:55:24.610Z,65
2017-04-29T06:56:26.008Z,70
2017-04-29T06:57:27.436Z,70
2017-04-29T06:58:28.855Z,65
2017-04-29T06:59:30.294Z,70
2017-04-29T07:00:31.717Z,60
2017-04-29T07:01:33.144Z,65
2017-04-29T07:02:34.566Z,70
2017-04-29T07:03:35.977Z,70
2017-04-29T07:04:37.398Z,75
2017-04-29T07:05:38.820Z,70
2017-04-29T07:06:40.237Z,70
2017-04-29T07:07:41.691Z,70
2017-04-29T07:08:43.077Z,25
2017-04-29T07:09:44.501Z,45
2017-04-29T07:10:45.916Z,20
2017-04-29T07:11:47.329Z,75
2017-04-29T07:12:48.751Z,75
2017-04-29T07:13:50.179Z,75
2017-04-29T07:14:51.605Z,45
2017-04-29T07:15:53.031Z,75
2017-04-29T07:16:54.455Z,75
2017-04-29T07:17:55.881Z,75
2017-04-29T07:18:57.297Z,75
2017-04-29T07:19:58.715Z,75
2017-04-29T07:21:00.136Z,75
2017-04-29T07:22:01.556Z,80
2017-04-29T07:23:02.973Z,75
2017-04-29T07:24:04.397Z,75
2017-04-29T07:25:05.829Z,75
2017-04-29T07:26:07.250Z,70
2017-04-29T07:27:08.672Z,75
2017-04-29T07:28:10.091Z,80
2017-04-29T07:29:11.517Z,80
2017-04-29T07:30:12.939Z,80
2017-04-29T07:31:14.364Z,85
2017-04-29T07:32:15.790Z,100
2017-04-29T07:33:17.212Z,110
2017-04-29T07:34:18.640Z,100
2017-04-29T07:35:20.079Z,90
2017-04-29T07:36:21.474Z,90
2017-04-29T07:37:22.903Z,90
2017-04-29T07:38:24.335Z,90
2017-04-29T07:39:25.749Z,95
2017-04-29T07:40:27.184Z,95
2017-04-29T07:41:28.610Z,85
2017-04-29T07:42:30.032Z,85
2017-04-29T07:43:31.462Z,85
2017-04-29T07:44:32.917Z,90
2017-04-29T07:45:34.341Z,105
2017-04-29T07:46:35.770Z,105
2017-04-29T07:47:37.205Z,100
2017-04-29T07:48:38.634Z,100
2017-04-29T07:49:40.059Z,105
2017-04-29T07:50:41.485Z,95
2017-04-29T07:51:42.911Z,90
2017-04-29T07:52:44.345Z,85
2017-04-29T07:53:45.769Z,85
2017-04-29T07:54:47.192Z,90
2017-04-29T07:55:48.623Z,100
2017-04-29T07:56:50.045Z,100
2017-04-29T07:57:51.467Z,90
2017-04-29T07:58:52.888Z,80
2017-04-29T07:59:54.314Z,70
2017-04-29T08:00:55.731Z,60
2017-04-29T08:01:57.158Z,55
2017-04-29T08:02:58.570Z,55
2017-04-29T08:04:00.001Z,60
2017-04-29T08:05:01.432Z,65
2017-04-29T08:06:02.844Z,75
2017-04-29T08:07:04.273Z,90
2017-04-29T08:08:05.696Z,100
2017-04-29T08:09:07.124Z,105
2017-04-29T08:10:08.546Z,105
2017-04-29T08:11:09.968Z,105
2017-04-29T08:12:11.392Z,105
2017-04-29T08:13:12.815Z,110
2017-04-29T08:14:14.248Z,105
2017-04-29T08:15:15.671Z,120
2017-04-29T08:16:17.088Z,125
2017-04-29T08:17:18.514Z,115
2017-04-29T08:18:19.946Z,110
2017-04-29T08:19:21.380Z,120
2017-04-29T08:20:22.799Z,125
2017-04-29T08:21:24.230Z,130
2017-04-29T08:22:25.661Z,130
2017-04-29T08:23:27.092Z,125
2017-04-29T08:24:28.512Z,125
2017-04-29T08:25:29.936Z,120
2017-04-29T08:26:31.363Z,135
2017-04-29T08:27:32.788Z,125
2017-04-29T08:28:34.208Z,115
2017-04-29T08:29:35.636Z,110
2017-04-29T08:30:37.064Z,90
2017-04-29T08:31:38.481Z,80
2017-04-29T08:32:39.915Z,65
2017-04-29T08:33:41.340Z,60
2017-04-29T08:34:43.644Z,55
2017-04-29T08:35:45.072Z,50
2017-04-29T08:36:46.586Z,55
2017-04-29T08:37:48.016Z,65
2017-04-29T08:38:49.438Z,70
2017-04-29T08:39:50.863Z,70
2017-04-29T08:40:52.282Z,70
2017-04-29T08:41:53.722Z,75
2017-04-29T08:42:55.150Z,65
2017-04-29T08:43:56.575Z,60
2017-04-29T08:44:57.997Z,60
2017-04-29T08:45:59.423Z,60
2017-04-29T08:47:00.849Z,60
2017-04-29T08:48:02.280Z,60
2017-04-29T08:49:03.706Z,60
2017-04-29T08:50:05.132Z,55
2017-04-29T08:51:06.562Z,55
2017-04-29T08:52:07.989Z,55
2017-04-29T08:53:09.409Z,50
2017-04-29T08:54:10.839Z,50
2017-04-29T08:55:12.264Z,50
2017-04-29T08:56:13.688Z,50
2017-04-29T08:57:15.128Z,50
2017-04-29T08:58:16.540Z,50
2017-04-29T08:59:17.968Z,45
2017-04-29T09:00:19.389Z,45
2017-04-29T09:01:20.814Z,50
2017-04-29T09:02:23.096Z,55
2017-04-29T09:03:24.522Z,65
2017-04-29T09:04:25.953Z,70
2017-04-29T09:05:27.373Z,70
2017-04-29T09:06:28.796Z,70
2017-04-29T09:07:30.226Z,70
2017-04-29T09:08:31.651Z,75
2017-04-29T09:09:33.074Z,75
2017-04-29T09:10:34.506Z,75
2017-04-29T09:11:35.924Z,80
2017-04-29T09:12:37.346Z,80
2017-04-29T09:13:38.777Z,80
2017-04-29T09:14:40.196Z,75
2017-04-29T09:15:41.622Z,70
2017-04-29T09:16:43.044Z,70
2017-04-29T09:17:44.464Z,65
2017-04-29T09:18:45.894Z,65
2017-04-29T09:19:47.317Z,60
2017-04-29T09:20:48.746Z,60
2017-04-29T09:21:50.178Z,55
2017-04-29T09:22:51.608Z,55
2017-04-29T09:23:53.041Z,55
2017-04-29T09:24:54.454Z,55
2017-04-29T09:25:55.889Z,50
2017-04-29T09:26:57.321Z,50
2017-04-29T09:27:58.757Z,50
2017-04-29T09:29:00.185Z,55
2017-04-29T09:30:01.613Z,55
2017-04-29T09:31:03.036Z,60
2017-04-29T09:32:04.465Z,65
2017-04-29T09:33:05.891Z,65
2017-04-29T09:34:07.323Z,70
2017-04-29T09:35:08.761Z,75
2017-04-29T09:36:10.192Z,85
2017-04-29T09:37:11.614Z,90
2017-04-29T09:38:13.046Z,100
2017-04-29T09:39:14.477Z,110
2017-04-29T09:40:15.893Z,115
2017-04-29T09:41:17.326Z,125
2017-04-29T09:42:18.757Z,130
2017-04-29T09:43:20.180Z,140
2017-04-29T09:44:21.607Z,150
2017-04-29T09:45:23.036Z,155
2017-04-29T09:46:24.458Z,165
2017-04-29T09:47:25.888Z,180
2017-04-29T09:48:27.315Z,190
2017-04-29T09:49:28.739Z,205
2017-04-29T09:50:30.162Z,210
2017-04-29T09:51:31.588Z,210
2017-04-29T09:52:33.016Z,230
2017-04-29T09:53:34.449Z,225
2017-04-29T09:54:35.871Z,230
2017-04-29T09:55:37.304Z,220
2017-04-29T09:56:38.723Z,175
2017-04-29T09:57:40.166Z,195
2017-04-29T09:58:42.224Z,195
2017-04-29T09:59:44.245Z,190
2017-04-29T10:00:45.675Z,185
2017-04-29T10:01:47.102Z,180
2017-04-29T10:02:48.541Z,180
2017-04-29T10:03:49.965Z,185
2017-04-29T10:04:51.402Z,190
2017-04-29T10:05:52.825Z,195
2017-04-29T10:06:54.261Z,200
2017-04-29T10:07:55.681Z,205
2017-04-29T10:08:57.102Z,190
2017-04-29T10:09:58.528Z,195
2017-04-29T10:10:59.955Z,225
2017-04-29T10:12:01.389Z,205
2017-04-29T10:13:02.813Z,200
2017-04-29T10:14:04.240Z,185
2017-04-29T10:15:05.665Z,170
2017-04-29T10:16:07.099Z,195
2017-04-29T10:17:08.518Z,200
2017-04-29T10:18:09.956Z,175
2017-04-29T10:19:11.397Z,170
2017-04-29T10:20:12.823Z,165
2017-04-29T10:21:14.250Z,155
2017-04-29T10:22:15.684Z,145
2017-04-29T10:23:17.105Z,145
2017-04-29T10:24:18.551Z,155
2017-04-29T10:25:19.967Z,90
2017-04-29T10:26:21.409Z,165
2017-04-29T10:27:22.850Z,170
2017-04-29T10:28:24.280Z,175
2017-04-29T10:29:25.702Z,205
2017-04-29T10:30:27.136Z,185
2017-04-29T10:31:28.565Z,180
2017-04-29T10:32:30.001Z,170
2017-04-29T10:33:31.440Z,170
2017-04-29T10:34:32.868Z,180
2017-04-29T10:35:34.300Z,185
2017-04-29T10:36:35.728Z,185
2017-04-29T10:37:37.684Z,190
2017-04-29T10:38:38.517Z,185
2017-04-29T10:39:39.945Z,180
2017-04-29T10:40:41.372Z,210
2017-04-29T10:41:42.811Z,220
2017-04-29T10:42:44.235Z,225
2017-04-29T10:43:45.655Z,220
2017-04-29T10:44:47.082Z,210
2017-04-29T10:45:48.507Z,225
2017-04-29T10:46:49.929Z,220
2017-04-29T10:47:51.353Z,235
2017-04-29T10:48:52.777Z,270
2017-04-29T10:49:54.210Z,275
2017-04-29T10:50:55.643Z,265
2017-04-29T10:51:57.081Z,260
2017-04-29T10:52:58.503Z,235
2017-04-29T10:53:59.932Z,205
2017-04-29T10:55:01.356Z,170
2017-04-29T10:56:02.783Z,195
2017-04-29T10:57:04.219Z,180
2017-04-29T10:58:05.634Z,180
2017-04-29T10:59:07.710Z,185
2017-04-29T11:00:09.155Z,190
2017-04-29T11:01:10.582Z,195
2017-04-29T11:02:12.005Z,200
2017-04-29T11:03:13.428Z,240
2017-04-29T11:04:14.854Z,195
2017-04-29T11:05:16.297Z,195
2017-04-29T11:06:17.719Z,195
2017-04-29T11:07:19.144Z,195
2017-04-29T11:08:20.577Z,190
2017-04-29T11:09:22.007Z,195
2017-04-29T11:10:23.435Z,200
2017-04-29T11:11:24.864Z,200
2017-04-29T11:12:26.292Z,190
2017-04-29T11:13:27.723Z,180
2017-04-29T11:14:29.150Z,200
2017-04-29T11:15:30.588Z,200
2017-04-29T11:16:32.009Z,200
2017-04-29T11:17:34.208Z,185
2017-04-29T11:18:35.633Z,175
2017-04-29T11:19:37.070Z,160
2017-04-29T11:20:38.607Z,175
2017-04-29T11:21:40.037Z,180
2017-04-29T11:22:41.466Z,190
2017-04-29T11:23:42.894Z,210
2017-04-29T11:24:44.326Z,230
2017-04-29T11:25:45.767Z,240
2017-04-29T11:26:47.190Z,255
2017-04-29T11:27:48.616Z,280
2017-04-29T11:28:50.038Z,230
2017-04-29T11:29:51.465Z,230
2017-04-29T11:30:52.894Z,185
2017-04-29T11:31:54.315Z,160
2017-04-29T11:32:55.736Z,140
2017-04-29T11:33:57.172Z,135
2017-04-29T11:34:58.594Z,125
2017-04-29T11:36:00.020Z,110
2017-04-29T11:37:01.446Z,100
2017-04-29T11:38:02.881Z,95
2017-04-29T11:39:04.305Z,75
2017-04-29T11:40:05.732Z,90
2017-04-29T11:41:07.154Z,85
2017-04-29T11:42:08.584Z,85
2017-04-29T11:43:10.005Z,85
2017-04-29T11:44:11.444Z,85
2017-04-29T11:45:12.863Z,85
2017-04-29T11:46:14.297Z,75
2017-04-29T11:47:15.714Z,100
2017-04-29T11:48:17.140Z,100
2017-04-29T11:49:18.561Z,105
2017-04-29T11:50:19.992Z,110
2017-04-29T11:51:21.422Z,115
2017-04-29T11:52:22.854Z,120
2017-04-29T11:53:24.290Z,125
2017-04-29T11:54:25.729Z,130
2017-04-29T11:55:27.155Z,130
2017-04-29T11:56:28.583Z,130
2017-04-29T11:57:30.015Z,140
2017-04-29T11:58:31.440Z,150
2017-04-29T11:59:32.863Z,150
2017-04-29T12:00:34.296Z,155
2017-04-29T12:01:35.718Z,160
2017-04-29T12:02:37.154Z,175
2017-04-29T12:03:38.584Z,175
2017-04-29T12:04:40.015Z,180
2017-04-29T12:05:41.440Z,195
2017-04-29T12:06:42.865Z,215
2017-04-29T12:07:44.293Z,210
2017-04-29T12:08:45.715Z,215
2017-04-29T12:09:47.139Z,225
2017-04-29T12:10:48.566Z,255
2017-04-29T12:11:49.991Z,205
2017-04-29T12:12:51.422Z,215
2017-04-29T12:13:52.844Z,210
2017-04-29T12:14:54.272Z,185
2017-04-29T12:15:55.693Z,160
2017-04-29T12:16:57.125Z,145
2017-04-29T12:17:58.560Z,135
2017-04-29T12:18:59.983Z,125
2017-04-29T12:20:01.412Z,115
2017-04-29T12:21:02.866Z,110
2017-04-29T12:22:04.301Z,105
2017-04-29T12:23:05.726Z,100
2017-04-29T12:24:07.165Z,95
2017-04-29T12:25:08.588Z,90
2017-04-29T12:26:10.016Z,90
2017-04-29T12:27:11.445Z,85
2017-04-29T12:28:12.888Z,85
2017-04-29T12:29:14.312Z,85
2017-04-29T12:30:15.731Z,85
2017-04-29T12:31:17.233Z,90
2017-04-29T12:32:18.663Z,100
2017-04-29T12:33:20.089Z,100
2017-04-29T12:34:21.522Z,110
2017-04-29T12:35:22.947Z,125
2017-04-29T12:36:24.492Z,140
2017-04-29T12:37:25.952Z,160
2017-04-29T12:38:27.339Z,185
2017-04-29T12:39:28.773Z,200
2017-04-29T12:40:30.206Z,220
2017-04-29T12:41:31.643Z,255
2017-04-29T12:42:33.075Z,280
2017-04-29T12:43:34.506Z,310
2017-04-29T12:44:35.933Z,340
2017-04-29T12:45:37.355Z,350
2017-04-29T12:46:38.884Z,385
2017-04-29T12:47:40.311Z,370
2017-04-29T12:48:41.739Z,365
2017-04-29T12:49:43.180Z,365
2017-04-29T12:50:44.661Z,345
2017-04-29T12:51:46.101Z,345
2017-04-29T12:52:47.518Z,370
2017-04-29T12:53:48.949Z,375
2017-04-29T12:54:50.481Z,365
2017-04-29T12:55:51.907Z,355
2017-04-29T12:56:53.334Z,335
2017-04-29T12:57:54.831Z,325
2017-04-29T12:58:56.251Z,320
2017-04-29T12:59:57.681Z,310
2017-04-29T13:00:59.173Z,310
2017-04-29T13:02:00.601Z,305
2017-04-29T13:03:02.036Z,310
2017-04-29T13:04:03.462Z,305
2017-04-29T13:05:04.882Z,305
2017-04-29T13:06:06.312Z,310
2017-04-29T13:07:07.736Z,310
2017-04-29T13:08:09.260Z,315
2017-04-29T13:09:10.693Z,330
2017-04-29T13:10:12.121Z,355
2017-04-29T13:11:13.551Z,340
2017-04-29T13:12:14.979Z,385
2017-04-29T13:13:16.409Z,315
2017-04-29T13:14:17.853Z,270
2017-04-29T13:15:19.291Z,240
2017-04-29T13:16:20.724Z,210
2017-04-29T13:17:22.154Z,190
2017-04-29T13:18:23.589Z,170
2017-04-29T13:19:25.032Z,145
2017-04-29T13:20:26.455Z,155
2017-04-29T13:21:27.882Z,155
2017-04-29T13:22:29.311Z,150
2017-04-29T13:23:30.750Z,150
2017-04-29T13:24:32.180Z,145
2017-04-29T13:25:33.612Z,145
2017-04-29T13:26:35.048Z,145
2017-04-29T13:27:36.481Z,140
2017-04-29T13:28:37.912Z,140
2017-04-29T13:29:40.113Z,135
2017-04-29T13:30:41.534Z,135
2017-04-29T13:31:42.962Z,130
2017-04-29T13:32:44.387Z,100
2017-04-29T13:33:45.811Z,140
2017-04-29T13:34:47.238Z,145
2017-04-29T13:35:48.667Z,150
2017-04-29T13:36:50.092Z,155
2017-04-29T13:37:51.521Z,160
2017-04-29T13:38:52.962Z,160
2017-04-29T13:39:54.382Z,170
2017-04-29T13:40:55.816Z,230
2017-04-29T13:41:57.243Z,1090
2017-04-29T13:42:58.676Z,655
2017-04-29T13:44:00.109Z,470
2017-04-29T13:45:01.536Z,265
2017-04-29T13:46:02.964Z,250
2017-04-29T13:47:04.397Z,240
2017-04-29T13:48:05.829Z,220
2017-04-29T13:49:07.255Z,205
2017-04-29T13:50:08.687Z,195
2017-04-29T13:51:10.105Z,195
2017-04-29T13:52:11.541Z,190
2017-04-29T13:53:12.967Z,190
2017-04-29T13:54:14.390Z,205
2017-04-29T13:55:15.818Z,200
2017-04-29T13:56:17.247Z,195
2017-04-29T13:57:18.669Z,190
2017-04-29T13:58:20.098Z,170
2017-04-29T13:59:21.525Z,155
2017-04-29T14:00:22.961Z,155
2017-04-29T14:01:24.388Z,155
2017-04-29T14:02:25.818Z,150
2017-04-29T14:03:27.256Z,145
2017-04-29T14:04:28.694Z,140
2017-04-29T14:05:30.125Z,140
2017-04-29T14:06:31.553Z,145
2017-04-29T14:07:32.982Z,150
2017-04-29T14:08:34.415Z,150
2017-04-29T14:09:35.842Z,150
2017-04-29T14:10:37.282Z,150
2017-04-29T14:11:38.713Z,150
2017-04-29T14:12:40.153Z,160
2017-04-29T14:13:41.583Z,180
2017-04-29T14:14:43.012Z,195
2017-04-29T14:15:44.443Z,220
2017-04-29T14:16:45.869Z,225
2017-04-29T14:17:47.296Z,235
2017-04-29T14:18:48.737Z,235
2017-04-29T14:19:50.172Z,230
2017-04-29T14:20:51.609Z,230
2017-04-29T14:21:53.033Z,230
2017-04-29T14:22:54.463Z,225
2017-04-29T14:23:55.901Z,240
2017-04-29T14:24:57.327Z,235
2017-04-29T14:25:58.756Z,235
2017-04-29T14:27:00.185Z,220
2017-04-29T14:28:01.604Z,215
2017-04-29T14:29:03.031Z,210
2017-04-29T14:30:04.455Z,210
2017-04-29T14:31:05.880Z,205
2017-04-29T14:32:07.311Z,210
2017-04-29T14:33:08.733Z,215
2017-04-29T14:34:10.163Z,225
2017-04-29T14:35:11.596Z,235